« Back
NWS Peachtree City, Ga » Text Product » CSG Terminal Aerodrome Forecast


Printer-friendly Version
Current Version              Previous Versions:   1  2  3  4  5  6  7  8  9  

Terminal Aerodrome Forecast

659
FTUS42 KFFC 191700
TAFCSG
TAF
KCSG 191720Z 1918/2018 05014G24KT P6SM OVC025
     FM200100 05012KT P6SM OVC025
     FM201500 07012KT P6SM SCT035=

USA.gov is the U.S. government's official web portal to all federal, state and local government web resources and services.